Whitney Point, NY (13862)

5:36 AM EST on February 07, 2016 (GMT -0500)
HagSwill Heights | | Change Station
CLOSE
Current Station
Personal Weather Station
Location: Whitney Point, NY
Elevation: 1056 ft
Nearby Weather Stations

Elev 1056 ft 42.35 °N, 75.96 °W | Updated 1 minute ago

Clear
Clear
18.1 °F
Feels Like 18 °F
N
0.7
Wind Variable Wind from SE
Gusts 1.6 mph

Today
High -- | Low -- °F
--% Chance of Precip.
Yesterday
High -- | Low -- °F
Precip. -- in
Pressure 30.15 in
Visibility 10.0 miles
Clouds Clear
Windchill 18 °F
Dew Point 10 °F
Humidity 71%
Rainfall 0.00 in
Snow Depth Not available.
7:11 AM 5:25 PM
Waning Crescent, 2% visible
METAR KBGM 070953Z AUTO 22004KT 10SM CLR M03/M08 A3010 RMK AO2 SLP209 T10281083
Pressure 30.15 in
Visibility 10.0 miles
Clouds Clear
Windchill 18 °F
Dew Point 10 °F
Humidity 71%
Rainfall 0.00 in
Snow Depth Not available.
7:11 AM 5:25 PM
Waning Crescent, 2% visible
METAR KBGM 070953Z AUTO 22004KT 10SM CLR M03/M08 A3010 RMK AO2 SLP209 T10281083

10-Day Weather Forecast

Almanac

Astronomy

Feb. 07, 2016 Rise Set
Actual Time
Civil Twilight
Nautical Twilight
Astronomical Twilight
Moon
Length of Visible Light
Length of Day
Tomorrow will be .
, % of the Moon is Illuminated

Today's Extremes

State Highs State Lows

Community

WunderPhotos

Upload Photos

1,891,171 photos uploaded!

WunderBlog® & News

Nearby

Air Quality

  Air Quality AQ Index Pollutant
Not available.

Snow Depth

Station Depth Elevation

Earthquake Activity

City Distance Mag. Time & Date
Minimum magnitude displayed is 2.5.

Coastal Water Temperatures

Place Temperature

Stations

Nearby Weather Stations

Station Location Temp. Windchill Dew Point Humidity Wind Precip. Elev Updated Type
                   

Watches & Warnings

There are currently no watches in effect.